MSC Bettina — HPFG — position and weather

sailwx.info

Track history (hours):
 
Tides and Currents Weather Stations Pressure Air Temp Water Temp Dewpoint Dewpoint Depression Visibility Wind Speed Wind Dir Waves Ship Positions

MSC Bettina

Last reported at 2015-Jan-31 17:16 UTC. Time now 2015-Jan-31 17:41 UTC.
Position N 01°16' E 103°46'.

Length 366 m; draft 14 m.

Type: Ship (hazmat cat A). MMSI: 352361000.

Date/timePositionNaut miles runAvg speedWind from/ knotsBaromVisibWave heightAir tempDewpointWater temp
2015-Jan-31 17:16N 01°16' E 103°46'0 0.0
2015-Jan-31 16:33N 01°16' E 103°46'0 0.0
2015-Jan-31 13:12N 01°16' E 103°46'0 0.0
2015-Jan-31 12:09N 01°16' E 103°46'0 0.0
2015-Jan-31 08:15N 01°16' E 103°46'0 0.0
2015-Jan-31 07:30N 01°16' E 103°46'0 0.0
2015-Jan-31 05:30N 01°16' E 103°46'0 0.0
2015-Jan-31 04:30N 01°16' E 103°46'0 0.0
2015-Jan-31 00:27N 01°16' E 103°46'0 0.0
2015-Jan-30 22:24N 01°16' E 103°46'0 0.0
2015-Jan-30 21:18N 01°16' E 103°46'0 0.0
2015-Jan-30 20:27N 01°16' E 103°46'0 0.0
2015-Jan-30 19:33N 01°16' E 103°46'0 0.0
2015-Jan-30 18:24N 01°16' E 103°46'0 0.0
2015-Jan-30 17:12N 01°16' E 103°46'0 0.0
2015-Jan-30 16:15N 01°16' E 103°46'0 0.0
2015-Jan-30 15:33N 01°16' E 103°46'0 0.0
2015-Jan-30 11:33N 01°16' E 103°46'0 0.0
2015-Jan-30 10:27N 01°16' E 103°46'0 0.0
2015-Jan-30 09:33N 01°16' E 103°46'0 0.0
2015-Jan-30 08:33N 01°16' E 103°46'0 0.0
2015-Jan-30 07:24N 01°16' E 103°46'0 0.0
2015-Jan-30 05:24N 01°16' E 103°46'0 0.0
2015-Jan-30 04:33N 01°16' E 103°46'0 0.0
2015-Jan-30 03:33N 01°16' E 103°46'0 0.0
2015-Jan-30 02:33N 01°16' E 103°46'0 0.0
2015-Jan-30 01:23N 01°16' E 103°46'1 0.8
2015-Jan-30 00:33N 01°16' E 103°46'5 4.6
2015-Jan-29 23:33N 01°12' E 103°49'9 8.2
2015-Jan-29 22:28N 01°15' E 103°58'1112.1
2015-Jan-29 21:33N 01°17' E 104°09'  
2015-Jan-26 11:05N 22°02' E 114°31'1018.6
2015-Jan-26 10:33N 22°12' E 114°33'12 1.2
2015-Jan-26 00:32N 22°24' E 114°31'1212.5
2015-Jan-25 23:32N 22°12' E 114°33'1110.9
2015-Jan-25 22:33N 22°08' E 114°23'1211.2
2015-Jan-25 21:31N 22°11' E 114°11'1211.2
2015-Jan-25 20:28N 22°21' E 114°04'1011.2
2015-Jan-25 19:33N 22°24' E 113°53'4 3.9
2015-Jan-25 18:33N 22°28' E 113°53'0 0.0
2015-Jan-25 17:30N 22°28' E 113°53'0 0.0
2015-Jan-25 16:30N 22°28' E 113°53'0 0.0
2015-Jan-25 15:33N 22°28' E 113°53'0 0.0
2015-Jan-25 14:27N 22°28' E 113°53'0 0.0
2015-Jan-25 13:30N 22°28' E 113°53'0 0.0
2015-Jan-25 12:30N 22°28' E 113°53'0 0.0
2015-Jan-25 11:33N 22°28' E 113°53'0 0.0
2015-Jan-25 10:33N 22°28' E 113°53'0 0.0
2015-Jan-25 09:33N 22°28' E 113°53'0 0.0
2015-Jan-25 08:33N 22°28' E 113°53'0 0.4
2015-Jan-25 07:33N 22°27' E 113°53'7 7.0
2015-Jan-25 06:33N 22°21' E 113°57'10 9.8
2015-Jan-25 05:33N 22°17' E 114°06'11 8.8
2015-Jan-25 04:18N 22°09' E 114°14'7 9.3
2015-Jan-25 03:33N 22°09' E 114°22'15117.8
2015-Jan-24 19:04N 22°42' E 117°02'916.9
2015-Jan-24 18:34N 22°48' E 117°08'1717.1
2015-Jan-24 17:33N 22°60' E 117°21'1717.0
2015-Jan-24 16:33N 23°11' E 117°36'1616.5
2015-Jan-24 15:33N 23°22' E 117°48'1616.4
2015-Jan-24 14:33N 23°33' E 118°02'1716.6
2015-Jan-24 13:33N 23°42' E 118°18'1717.1
2015-Jan-24 12:33N 23°51' E 118°33'1717.5
2015-Jan-24 11:33N 24°02' E 118°48'1817.8
2015-Jan-24 10:33N 24°13' E 119°04'1818.2
2015-Jan-24 09:33N 24°24' E 119°19'1817.5
2015-Jan-24 08:33N 24°36' E 119°34'1817.9
2015-Jan-24 07:33N 24°48' E 119°48'3718.2
2015-Jan-24 05:33N 25°10' E 120°21'34016.9
2015-Jan-23 09:24N 30°24' E 122°47'1618.9
2015-Jan-23 08:33N 30°31' E 122°31'1616.2
2015-Jan-23 07:34N 30°33' E 122°12'8 8.2
2015-Jan-23 06:34N 30°37' E 122°04'0 0.1
2015-Jan-23 05:30N 30°37' E 122°04'0 0.0
2015-Jan-23 04:33N 30°37' E 122°04'0 0.0
2015-Jan-23 03:27N 30°37' E 122°04'0 0.0
2015-Jan-23 02:33N 30°37' E 122°04'0 0.0
2015-Jan-23 01:30N 30°37' E 122°04'0 0.0
2015-Jan-23 00:33N 30°37' E 122°04'0 0.0
2015-Jan-22 23:12N 30°37' E 122°04'0 0.0
2015-Jan-22 21:33N 30°37' E 122°04'0 0.0
2015-Jan-22 19:15N 30°37' E 122°04'0 0.0
2015-Jan-22 18:21N 30°37' E 122°04'2 2.7
2015-Jan-22 17:32N 30°36' E 122°06'1010.7
2015-Jan-22 16:34N 30°33' E 122°17'7 7.1
2015-Jan-22 15:33N 30°32' E 122°26'31 2.0
2015-Jan-22 00:23N 30°20' E 122°58'27 5.7
2015-Jan-21 19:32N 29°52' E 122°54'7 6.6
2015-Jan-21 18:33N 29°48' E 122°49'7 7.1
2015-Jan-21 17:33N 29°44' E 122°42'  
Track history (hours):
 
Tides and Currents Weather Stations Pressure Air Temp Water Temp Dewpoint Dewpoint Depression Visibility Wind Speed Wind Dir Waves Ship Positions

MSC Bettina

Last reported at 2015-Jan-31 17:16 UTC. Time now 2015-Jan-31 17:41 UTC.
Position N 01°16' E 103°46'.

Length 366 m; draft 14 m.

Type: Ship (hazmat cat A). MMSI: 352361000.

Date/timePositionNaut miles runAvg speedWind from/ knotsBaromVisibWave heightAir tempDewpointWater temp
2015-Jan-31 17:16N 01°16' E 103°46'0 0.0
2015-Jan-31 16:33N 01°16' E 103°46'0 0.0
2015-Jan-31 13:12N 01°16' E 103°46'0 0.0
2015-Jan-31 12:09N 01°16' E 103°46'0 0.0
2015-Jan-31 08:15N 01°16' E 103°46'0 0.0
2015-Jan-31 07:30N 01°16' E 103°46'0 0.0
2015-Jan-31 05:30N 01°16' E 103°46'0 0.0
2015-Jan-31 04:30N 01°16' E 103°46'0 0.0
2015-Jan-31 00:27N 01°16' E 103°46'0 0.0
2015-Jan-30 22:24N 01°16' E 103°46'0 0.0
2015-Jan-30 21:18N 01°16' E 103°46'0 0.0
2015-Jan-30 20:27N 01°16' E 103°46'0 0.0
2015-Jan-30 19:33N 01°16' E 103°46'0 0.0
2015-Jan-30 18:24N 01°16' E 103°46'0 0.0
2015-Jan-30 17:12N 01°16' E 103°46'0 0.0
2015-Jan-30 16:15N 01°16' E 103°46'0 0.0
2015-Jan-30 15:33N 01°16' E 103°46'0 0.0
2015-Jan-30 11:33N 01°16' E 103°46'0 0.0
2015-Jan-30 10:27N 01°16' E 103°46'0 0.0
2015-Jan-30 09:33N 01°16' E 103°46'0 0.0
2015-Jan-30 08:33N 01°16' E 103°46'0 0.0
2015-Jan-30 07:24N 01°16' E 103°46'0 0.0
2015-Jan-30 05:24N 01°16' E 103°46'0 0.0
2015-Jan-30 04:33N 01°16' E 103°46'0 0.0
2015-Jan-30 03:33N 01°16' E 103°46'0 0.0
2015-Jan-30 02:33N 01°16' E 103°46'0 0.0
2015-Jan-30 01:23N 01°16' E 103°46'1 0.8
2015-Jan-30 00:33N 01°16' E 103°46'5 4.6
2015-Jan-29 23:33N 01°12' E 103°49'9 8.2
2015-Jan-29 22:28N 01°15' E 103°58'1112.1
2015-Jan-29 21:33N 01°17' E 104°09'  
2015-Jan-26 11:05N 22°02' E 114°31'1018.6
2015-Jan-26 10:33N 22°12' E 114°33'12 1.2
2015-Jan-26 00:32N 22°24' E 114°31'1212.5
2015-Jan-25 23:32N 22°12' E 114°33'1110.9
2015-Jan-25 22:33N 22°08' E 114°23'1211.2
2015-Jan-25 21:31N 22°11' E 114°11'1211.2
2015-Jan-25 20:28N 22°21' E 114°04'1011.2
2015-Jan-25 19:33N 22°24' E 113°53'4 3.9
2015-Jan-25 18:33N 22°28' E 113°53'0 0.0
2015-Jan-25 17:30N 22°28' E 113°53'0 0.0
2015-Jan-25 16:30N 22°28' E 113°53'0 0.0
2015-Jan-25 15:33N 22°28' E 113°53'0 0.0
2015-Jan-25 14:27N 22°28' E 113°53'0 0.0
2015-Jan-25 13:30N 22°28' E 113°53'0 0.0
2015-Jan-25 12:30N 22°28' E 113°53'0 0.0
2015-Jan-25 11:33N 22°28' E 113°53'0 0.0
2015-Jan-25 10:33N 22°28' E 113°53'0 0.0
2015-Jan-25 09:33N 22°28' E 113°53'0 0.0
2015-Jan-25 08:33N 22°28' E 113°53'0 0.4
2015-Jan-25 07:33N 22°27' E 113°53'7 7.0
2015-Jan-25 06:33N 22°21' E 113°57'10 9.8
2015-Jan-25 05:33N 22°17' E 114°06'11 8.8
2015-Jan-25 04:18N 22°09' E 114°14'7 9.3
2015-Jan-25 03:33N 22°09' E 114°22'15117.8
2015-Jan-24 19:04N 22°42' E 117°02'916.9
2015-Jan-24 18:34N 22°48' E 117°08'1717.1
2015-Jan-24 17:33N 22°60' E 117°21'1717.0
2015-Jan-24 16:33N 23°11' E 117°36'1616.5
2015-Jan-24 15:33N 23°22' E 117°48'1616.4
2015-Jan-24 14:33N 23°33' E 118°02'1716.6
2015-Jan-24 13:33N 23°42' E 118°18'1717.1
2015-Jan-24 12:33N 23°51' E 118°33'1717.5
2015-Jan-24 11:33N 24°02' E 118°48'1817.8
2015-Jan-24 10:33N 24°13' E 119°04'1818.2
2015-Jan-24 09:33N 24°24' E 119°19'1817.5
2015-Jan-24 08:33N 24°36' E 119°34'1817.9
2015-Jan-24 07:33N 24°48' E 119°48'3718.2
2015-Jan-24 05:33N 25°10' E 120°21'34016.9
2015-Jan-23 09:24N 30°24' E 122°47'1618.9
2015-Jan-23 08:33N 30°31' E 122°31'1616.2
2015-Jan-23 07:34N 30°33' E 122°12'8 8.2
2015-Jan-23 06:34N 30°37' E 122°04'0 0.1
2015-Jan-23 05:30N 30°37' E 122°04'0 0.0
2015-Jan-23 04:33N 30°37' E 122°04'0 0.0
2015-Jan-23 03:27N 30°37' E 122°04'0 0.0
2015-Jan-23 02:33N 30°37' E 122°04'0 0.0
2015-Jan-23 01:30N 30°37' E 122°04'0 0.0
2015-Jan-23 00:33N 30°37' E 122°04'0 0.0
2015-Jan-22 23:12N 30°37' E 122°04'0 0.0
2015-Jan-22 21:33N 30°37' E 122°04'0 0.0
2015-Jan-22 19:15N 30°37' E 122°04'0 0.0
2015-Jan-22 18:21N 30°37' E 122°04'2 2.7
2015-Jan-22 17:32N 30°36' E 122°06'1010.7
2015-Jan-22 16:34N 30°33' E 122°17'7 7.1
2015-Jan-22 15:33N 30°32' E 122°26'31 2.0
2015-Jan-22 00:23N 30°20' E 122°58'27 5.7
2015-Jan-21 19:32N 29°52' E 122°54'7 6.6
2015-Jan-21 18:33N 29°48' E 122°49'7 7.1
2015-Jan-21 17:33N 29°44' E 122°42'  

Dump ship's entire track history